Pagina principale
METAR-TAF:

METAR-TAF

Aeroporti :

Aeroporto Internazionale di Baghdad

Baghdad, Iraq

latitudine: 33-15-45N, longitudine: 44-14-04E, altezza: 35 m

Osservazione

Il bollettino è stato emesso 22 minuti fa, alle 18:30 UTC
Vento 5 kt da ovest
Temperature 32°C
Umidità 26%
Pressione 1005 hPa
Visibilità 10 km o più
nessuna nube inferiore a 1500 m e nessun cumulonembo

METAR: ORBI 251830Z 27005KT CAVOK 32/10 Q1005

Ora: 21:52 (18:52 UTC)

Previsione

Il bollettino è stato emesso 1 ora e 52 minuti fa, alle 17:00 UTC
Previsione valida dal 25 alle 18 UTC al 26 alle 18 UTC
Vento 10 kt da ovest/nord-ovest
Visibilità: 8000 m

TAF: ORBI 251700Z 2518/2618 30010KT 8000 NSC

Osservazioni e previsioni meteorologiche di più di 4000 aeroporti (messaggi METAR e TAF).

Le stazioni disponibili sono rappresentate dai dischi gialli e rossi sulla carta.

Puntare il mouse per vedere il nome della stazione.

Clicca sopra per visualizzare le osservazioni e previsioni meteorologiche.

Per cambiare la mappa : fare clic sui pulsanti verdi con una croce nera per ingrandire, il pulsante verde con un trattino per diminuire, o sulla freccia verde per le mappe adiacenti.


METAR-TAF: